Time;durP1;ratioP1;P1;durP2;ratioP2;P2;SDS_P1;SDS_P2;PMS_P1;PMS_P2;Temp;Humidity;BMP_temperature;BMP_pressure;BME280_temperature;BME280_humidity;BME280_pressure;Samples;Min_cycle;Max_cycle;Signal;HPM_P1;HPM_P2
2023/05/23 00:01:06;;;;;;;16.40;9.65;;;;;;;14.25;78.32;95130.47;5051955;28;20518;-77
2023/05/23 00:03:32;;;;;;;11.30;8.65;;;;;;;14.12;78.05;95104.56;5053686;28;20126;-77
2023/05/23 00:05:58;;;;;;;18.25;9.00;;;;;;;14.13;77.64;95104.28;5053409;28;20040;-77
2023/05/23 00:08:24;;;;;;;13.93;9.77;;;;;;;14.11;78.04;95101.09;5055527;28;20044;-77
2023/05/23 00:10:49;;;;;;;17.65;9.32;;;;;;;14.03;78.37;95098.38;5036506;28;20033;-77
2023/05/23 00:13:14;;;;;;;13.10;9.38;;;;;;;13.91;78.02;95070.31;5053152;28;20037;-77
2023/05/23 00:15:44;;;;;;;17.17;9.13;;;;;;;14.22;77.93;95115.84;5086094;28;20474;-77
2023/05/23 00:18:10;;;;;;;23.70;9.48;;;;;;;14.16;81.41;95109.03;5053567;28;20037;-77
2023/05/23 00:20:41;;;;;;;13.00;8.85;;;;;;;13.81;77.15;95067.84;5053328;28;20131;-77
2023/05/23 00:23:08;;;;;;;16.40;9.93;;;;;;;14.11;77.89;95119.00;5052503;28;20094;-77
2023/05/23 00:25:34;;;;;;;17.73;9.43;;;;;;;14.12;77.42;95115.22;5066494;28;20042;-77
2023/05/23 00:28:01;;;;;;;15.43;10.15;;;;;;;14.03;78.14;95109.03;5042951;28;20048;-77
2023/05/23 00:30:28;;;;;;;13.35;10.13;;;;;;;14.03;78.44;95104.50;5053918;28;20061;-76
2023/05/23 00:32:54;;;;;;;14.70;10.63;;;;;;;13.86;78.57;95074.97;5052155;28;20047;-76
2023/05/23 00:35:20;;;;;;;13.77;10.13;;;;;;;14.02;77.29;95112.78;5038388;28;20431;-77
2023/05/23 00:37:49;;;;;;;20.60;10.40;;;;;;;13.95;77.40;95104.38;5049052;28;20040;-76
2023/05/23 00:40:17;;;;;;;15.95;10.50;;;;;;;13.99;78.00;95114.16;5054064;28;20094;-76
2023/05/23 00:42:42;;;;;;;14.13;9.75;;;;;;;13.94;78.64;95100.94;5052051;28;20131;-76
2023/05/23 00:45:08;;;;;;;16.85;10.80;;;;;;;13.77;79.32;95093.50;5052556;28;20522;-77
2023/05/23 00:47:33;;;;;;;18.65;11.00;;;;;;;13.92;79.20;95108.44;5053907;28;20036;-77
2023/05/23 00:49:59;;;;;;;15.57;10.88;;;;;;;13.73;79.58;95087.16;5054407;28;20033;-76
2023/05/23 00:52:24;;;;;;;12.95;9.95;;;;;;;13.80;100.00;95082.28;5049478;28;20060;-76
2023/05/23 00:54:50;;;;;;;18.63;10.82;;;;;;;13.88;78.78;95100.22;5038557;28;20029;-76
2023/05/23 00:57:16;;;;;;;16.20;10.32;;;;;;;13.79;78.75;95075.34;5052285;28;20375;-76
2023/05/23 00:59:44;;;;;;;18.33;11.52;;;;;;;13.93;77.92;95101.22;5044648;28;20049;-76
2023/05/23 01:02:11;;;;;;;17.38;11.52;;;;;;;13.61;78.54;95049.56;5043321;28;20055;-76
2023/05/23 01:04:38;;;;;;;20.83;12.70;;;;;;;13.56;78.19;95040.88;5052872;28;20168;-76
2023/05/23 01:07:04;;;;;;;19.30;11.52;;;;;;;13.94;78.56;95113.47;5051984;28;20037;-76
2023/05/23 01:09:30;;;;;;;17.42;9.80;;;;;;;13.67;79.15;95076.91;5036869;28;20036;-76
2023/05/23 01:12:15;;;;;;;17.48;11.50;;;;;;;13.74;78.06;95094.09;5049431;28;20458;-76
2023/05/23 01:14:51;;;;;;;15.10;10.48;;;;;;;13.61;78.60;95075.44;5034923;28;20720;-78
2023/05/23 01:17:40;;;;;;;22.25;12.98;;;;;;;13.82;79.24;95116.59;5045371;28;20029;-79
2023/05/23 01:20:18;;;;;;;15.52;10.80;;;;;;;13.91;78.59;95112.97;5041763;28;20044;-79
2023/05/23 01:23:17;;;;;;;22.15;11.93;;;;;;;13.74;78.05;95090.63;5050241;28;20410;-79
2023/05/23 01:26:01;;;;;;;19.02;10.65;;;;;;;13.53;78.80;95063.56;5050917;28;20033;-77
2023/05/23 01:28:36;;;;;;;27.13;12.55;;;;;;;13.65;79.49;95089.75;5051028;28;20404;-79
2023/05/23 01:31:03;;;;;;;16.48;11.63;;;;;;;13.42;78.94;95051.53;5049618;28;20475;-79
2023/05/23 01:33:30;;;;;;;17.20;11.30;;;;;;;13.62;77.87;95082.34;5051012;28;20033;-79
2023/05/23 01:35:59;;;;;;;17.15;11.80;;;;;;;13.49;78.04;95059.94;5050513;28;20033;-79
2023/05/23 01:38:25;;;;;;;16.75;10.95;;;;;;;13.83;78.73;95120.84;5050948;28;20040;-78
2023/05/23 01:40:50;;;;;;;20.92;11.82;;;;;;;13.77;78.35;95116.72;5050075;28;20503;-78
2023/05/23 01:43:16;;;;;;;18.00;11.43;;;;;;;13.53;78.20;95075.03;5051023;28;20044;-78
2023/05/23 01:45:42;;;;;;;22.70;12.07;;;;;;;13.52;78.89;95078.75;5049341;28;20170;-79
2023/05/23 01:48:09;;;;;;;21.27;12.32;;;;;;;13.75;79.02;95103.66;5049727;28;20053;-79
2023/05/23 01:50:35;;;;;;;13.98;10.02;;;;;;;13.73;78.19;95103.16;5034481;28;20099;-76
2023/05/23 01:53:01;;;;;;;16.33;10.90;;;;;;;13.58;78.41;95089.34;5049438;28;20041;-76
2023/05/23 01:55:27;;;;;;;16.48;11.25;;;;;;;13.59;78.27;95083.72;5052525;28;20033;-77
2023/05/23 01:57:54;;;;;;;23.17;13.10;;;;;;;13.62;78.85;95085.00;5050524;28;20124;-76
2023/05/23 02:00:21;;;;;;;26.63;12.80;;;;;;;13.60;78.74;95084.50;5034378;28;20056;-76
2023/05/23 02:02:46;;;;;;;19.33;12.18;;;;;;;13.59;78.47;95081.03;5049104;28;20030;-76
2023/05/23 02:05:12;;;;;;;19.10;11.70;;;;;;;13.47;78.01;95067.41;5034540;28;20087;-76
2023/05/23 02:07:38;;;;;;;19.75;11.10;;;;;;;13.68;78.46;95105.94;5046270;28;20025;-76
2023/05/23 02:10:06;;;;;;;18.88;11.48;;;;;;;13.63;78.23;95089.25;5039362;28;20102;-77
2023/05/23 02:12:31;;;;;;;19.15;12.05;;;;;;;13.54;77.88;95083.81;5051270;28;20025;-76
2023/05/23 02:14:57;;;;;;;19.70;12.18;;;;;;;13.43;78.15;95069.06;5051779;28;20049;-76
2023/05/23 02:17:23;;;;;;;18.55;12.70;;;;;;;13.32;78.43;95059.69;5044278;28;20041;-76
2023/05/23 02:19:48;;;;;;;19.88;11.93;;;;;;;13.67;78.85;95107.00;5047968;28;20036;-77
2023/05/23 02:22:14;;;;;;;18.27;12.63;;;;;;;13.48;79.65;95072.47;5056728;28;20044;-76
2023/05/23 02:24:39;;;;;;;16.25;11.93;;;;;;;13.55;79.92;95082.72;5041707;28;20084;-76
2023/05/23 02:27:05;;;;;;;17.08;11.25;;;;;;;13.50;79.58;95070.28;5050977;28;20538;-76
2023/05/23 02:29:31;;;;;;;18.45;12.18;;;;;;;13.73;79.46;95105.81;5055301;28;20036;-77
2023/05/23 02:31:56;;;;;;;27.63;13.57;;;;;;;13.56;79.63;95067.53;5056411;28;20485;-76
2023/05/23 02:34:22;;;;;;;21.20;13.40;;;;;;;13.47;78.99;95065.53;5054731;28;20040;-76
2023/05/23 02:36:47;;;;;;;22.45;13.80;;;;;;;13.78;79.38;95099.63;5055107;28;20033;-76
2023/05/23 02:39:13;;;;;;;25.55;14.25;;;;;;;13.57;79.82;95063.78;5056035;28;20543;-76
2023/05/23 02:41:39;;;;;;;23.52;14.13;;;;;;;13.52;79.60;95056.66;5054551;28;20048;-76
2023/05/23 02:44:04;;;;;;;21.98;13.80;;;;;;;13.57;79.81;95061.91;5048456;28;20496;-76
2023/05/23 02:46:29;;;;;;;26.98;14.63;;;;;;;13.67;80.10;95083.03;5035802;28;20037;-76
2023/05/23 02:48:55;;;;;;;26.02;14.75;;;;;;;13.81;80.57;95091.03;5043266;28;20033;-76
2023/05/23 02:51:20;;;;;;;29.42;17.00;;;;;;;13.53;80.34;95044.91;5054928;28;20068;-77
2023/05/23 02:53:46;;;;;;;32.90;16.83;;;;;;;13.84;80.23;95093.91;5055955;28;20037;-76
2023/05/23 02:56:12;;;;;;;31.48;18.67;;;;;;;13.74;79.98;95079.97;5042375;28;20041;-76
2023/05/23 02:58:38;;;;;;;30.05;17.60;;;;;;;13.90;80.73;95094.59;5047767;28;20025;-76
2023/05/23 03:01:05;;;;;;;27.45;19.10;;;;;;;13.85;80.78;95092.81;5056014;28;20036;-77
2023/05/23 03:03:30;;;;;;;40.55;22.15;;;;;;;13.62;80.72;95042.38;5054477;28;20041;-76
2023/05/23 03:06:05;;;;;;;44.50;22.95;;;;;;;13.80;80.65;95081.47;5056005;28;20106;-76
2023/05/23 03:08:30;;;;;;;39.95;22.15;;;;;;;13.98;80.37;95087.78;5053985;28;20042;-77
2023/05/23 03:10:56;;;;;;;34.95;20.42;;;;;;;13.77;80.67;95061.53;5054552;28;20481;-77
2023/05/23 03:13:21;;;;;;;31.63;20.10;;;;;;;13.85;80.64;95068.84;5054032;28;20059;-76
2023/05/23 03:15:47;;;;;;;38.00;21.55;;;;;;;13.93;80.45;95071.91;5053917;28;20028;-76
2023/05/23 03:18:12;;;;;;;38.58;23.00;;;;;;;14.02;80.75;95088.78;5055183;28;20044;-76
2023/05/23 03:20:37;;;;;;;34.60;20.90;;;;;;;13.85;80.25;95060.84;5055921;28;20032;-76
2023/05/23 03:23:03;;;;;;;37.63;20.52;;;;;;;13.74;80.22;95042.66;5046852;28;20087;-76
2023/05/23 03:25:28;;;;;;;37.28;21.10;;;;;;;13.84;80.15;95053.13;5043977;28;20033;-76
2023/05/23 03:27:54;;;;;;;35.50;20.98;;;;;;;14.12;79.72;95101.91;5051994;28;20037;-77
2023/05/23 03:30:20;;;;;;;35.75;20.83;;;;;;;14.16;79.40;95102.91;5053986;28;20404;-77
2023/05/23 03:32:48;;;;;;;36.80;19.73;;;;;;;14.16;79.44;95114.34;5042331;28;20044;-76
2023/05/23 03:35:14;;;;;;;39.10;21.92;;;;;;;13.95;79.16;95077.72;5047310;28;20064;-77
2023/05/23 03:37:39;;;;;;;34.55;20.88;;;;;;;14.22;78.99;95117.72;5053984;28;20135;-76
2023/05/23 03:40:06;;;;;;;38.03;21.27;;;;;;;14.08;79.08;95093.72;5053435;28;20129;-76
2023/05/23 03:42:31;;;;;;;48.88;22.38;;;;;;;13.81;79.21;95089.16;5053374;28;20040;-77
2023/05/23 03:44:57;;;;;;;42.03;23.65;;;;;;;13.77;78.46;95055.41;5035015;28;20068;-77
2023/05/23 03:47:23;;;;;;;49.00;23.08;;;;;;;14.15;78.89;95106.66;5066060;28;20249;-78
2023/05/23 03:49:48;;;;;;;42.50;23.00;;;;;;;14.02;79.46;95092.25;5053298;28;20036;-78
2023/05/23 03:52:14;;;;;;;46.95;22.48;;;;;;;13.52;79.24;95025.47;5055586;28;20045;-78
2023/05/23 03:54:39;;;;;;;43.47;20.45;;;;;;;14.26;79.08;95122.16;5048579;28;20029;-78
2023/05/23 03:57:05;;;;;;;36.40;21.65;;;;;;;13.86;78.75;95072.28;5052076;28;20087;-78
2023/05/23 03:59:31;;;;;;;43.63;21.40;;;;;;;13.94;78.53;95100.94;5053093;28;20111;-78
2023/05/23 04:01:57;;;;;;;41.00;22.92;;;;;;;14.19;78.60;95128.97;5049032;28;20036;-78
2023/05/23 04:04:23;;;;;;;43.08;22.77;;;;;;;13.94;78.26;95084.94;5052815;28;20032;-78
2023/05/23 04:06:50;;;;;;;39.88;22.10;;;;;;;14.15;77.74;95101.31;5053432;28;20044;-78
2023/05/23 04:09:16;;;;;;;51.50;26.60;;;;;;;14.06;78.21;95087.88;5040744;28;20041;-78
2023/05/23 04:11:42;;;;;;;44.90;24.35;;;;;;;13.94;79.01;95066.28;5047027;28;20048;-78
2023/05/23 04:14:07;;;;;;;46.28;24.05;;;;;;;14.21;78.57;95097.44;5048469;28;20033;-78
2023/05/23 04:16:34;;;;;;;44.67;23.73;;;;;;;14.13;78.38;95080.28;5051270;28;20131;-78
2023/05/23 04:19:01;;;;;;;55.15;28.48;;;;;;;14.17;78.49;95115.94;5044655;28;20028;-78
2023/05/23 04:21:27;;;;;;;72.97;34.25;;;;;;;14.28;78.88;95109.31;5053181;28;20079;-79
2023/05/23 04:23:52;;;;;;;54.22;28.45;;;;;;;14.19;78.47;95096.94;5047525;28;20028;-79
2023/05/23 04:26:19;;;;;;;67.00;30.17;;;;;;;14.41;78.41;95117.63;5054009;28;20409;-78
2023/05/23 04:28:47;;;;;;;54.90;28.42;;;;;;;14.47;78.28;95121.78;5041826;28;20129;-78
2023/05/23 04:31:14;;;;;;;50.38;26.05;;;;;;;14.16;78.69;95079.69;5048696;28;20422;-78
2023/05/23 04:33:40;;;;;;;55.13;29.35;;;;;;;14.39;78.96;95111.81;5045808;28;20029;-78
2023/05/23 04:36:09;;;;;;;60.75;29.55;;;;;;;14.43;79.22;95134.13;5045695;28;20500;-78
2023/05/23 04:38:37;;;;;;;63.58;26.65;;;;;;;14.34;78.84;95104.69;5050324;28;20060;-78
2023/05/23 04:41:05;;;;;;;55.08;26.77;;;;;;;14.16;79.10;95082.34;5051655;28;20043;-78
2023/05/23 04:43:32;;;;;;;39.03;21.90;;;;;;;14.36;79.05;95097.13;5051915;28;20139;-78
2023/05/23 04:45:58;;;;;;;30.83;15.70;;;;;;;14.52;79.05;95133.13;5053359;28;20035;-78
2023/05/23 04:48:24;;;;;;;25.88;13.60;;;;;;;13.61;78.05;95000.81;5040425;28;20037;-79
2023/05/23 04:50:51;;;;;;;21.50;12.82;;;;;;;14.35;77.23;95108.09;5044741;28;20106;-78
2023/05/23 04:53:16;;;;;;;24.00;12.88;;;;;;;14.00;76.64;95048.28;5045563;28;20041;-78
2023/05/23 04:55:45;;;;;;;21.27;13.10;;;;;;;14.62;76.35;95138.25;5044463;28;20034;-78
2023/05/23 04:58:11;;;;;;;22.90;13.57;;;;;;;14.61;76.23;95136.66;5050470;28;20435;-78
2023/05/23 05:00:37;;;;;;;21.13;13.82;;;;;;;14.53;75.87;95128.56;5051145;28;20089;-78
2023/05/23 05:03:02;;;;;;;24.88;13.75;;;;;;;14.43;75.53;95115.44;5036826;28;20368;-78
2023/05/23 05:05:28;;;;;;;29.33;14.50;;;;;;;14.45;75.70;95132.75;5044665;28;20032;-78
2023/05/23 05:07:53;;;;;;;33.72;16.10;;;;;;;13.96;75.70;95042.75;5045521;28;20393;-79
2023/05/23 05:10:19;;;;;;;43.80;18.58;;;;;;;14.70;76.61;95160.00;5045694;28;20044;-78
2023/05/23 05:12:45;;;;;;;48.83;21.98;;;;;;;14.67;76.67;95159.50;5047686;28;20037;-78
2023/05/23 05:15:12;;;;;;;66.78;24.80;;;;;;;14.56;76.96;95128.00;5044052;28;20057;-78
2023/05/23 05:17:38;;;;;;;41.28;19.70;;;;;;;14.33;76.84;95079.09;5039181;28;20040;-78
2023/05/23 05:20:07;;;;;;;40.00;19.50;;;;;;;14.65;77.48;95142.97;5041151;28;20037;-78
2023/05/23 05:22:39;;;;;;;36.05;17.50;;;;;;;14.82;77.03;95165.59;5040913;28;20033;-78
2023/05/23 05:25:08;;;;;;;32.78;17.77;;;;;;;14.83;77.29;95167.97;5044598;28;20025;-78
2023/05/23 05:27:36;;;;;;;37.72;19.13;;;;;;;14.77;76.46;95155.81;5050832;28;20697;-78
2023/05/23 05:30:07;;;;;;;33.85;17.95;;;;;;;14.75;75.57;95125.97;5016235;28;20033;-78
2023/05/23 05:32:33;;;;;;;40.47;19.52;;;;;;;14.71;75.17;95126.88;5036683;28;20098;-78
2023/05/23 05:35:02;;;;;;;43.05;19.83;;;;;;;14.76;75.40;95118.75;5033385;28;20042;-79
2023/05/23 05:37:28;;;;;;;39.10;18.85;;;;;;;14.98;75.26;95158.84;5041362;28;20418;-79
2023/05/23 05:39:54;;;;;;;38.75;20.00;;;;;;;14.63;75.77;95129.16;5032356;28;20030;-79
2023/05/23 05:42:21;;;;;;;40.10;19.15;;;;;;;14.61;75.90;95144.69;5030244;28;20053;-79
2023/05/23 05:44:47;;;;;;;38.50;20.58;;;;;;;14.60;76.40;95115.63;5037352;28;20374;-78
2023/05/23 05:47:12;;;;;;;39.70;20.85;;;;;;;14.75;76.82;95130.50;5041627;28;20030;-78
2023/05/23 05:49:38;;;;;;;36.03;20.60;;;;;;;14.96;76.55;95147.66;5031558;28;20029;-79
2023/05/23 05:52:05;;;;;;;37.95;20.88;;;;;;;14.74;75.25;95131.59;5042465;28;20036;-79
2023/05/23 05:54:31;;;;;;;39.28;20.00;;;;;;;14.72;75.34;95128.47;5050625;28;20028;-79
2023/05/23 05:56:56;;;;;;;39.75;20.98;;;;;;;14.96;74.80;95147.66;5051429;28;20127;-79
2023/05/23 05:59:22;;;;;;;49.00;19.55;;;;;;;14.82;76.13;95130.88;5036487;28;20055;-78
2023/05/23 06:01:49;;;;;;;53.08;20.77;;;;;;;15.02;75.10;95147.25;5032050;28;20034;-78
2023/05/23 06:04:15;;;;;;;36.83;19.85;;;;;;;14.75;75.05;95125.16;5049559;28;20474;-79
2023/05/23 06:06:41;;;;;;;36.92;19.83;;;;;;;14.95;74.81;95114.81;5051193;28;20071;-78
2023/05/23 06:09:07;;;;;;;36.40;20.92;;;;;;;15.14;74.90;95128.03;5044403;28;20025;-78
2023/05/23 06:11:32;;;;;;;42.67;21.95;;;;;;;15.28;75.73;95149.31;5042705;28;20064;-78
2023/05/23 06:13:58;;;;;;;32.85;20.02;;;;;;;15.58;75.52;95161.19;5041353;28;20040;-78
2023/05/23 06:16:23;;;;;;;39.17;20.50;;;;;;;15.20;74.94;95108.09;5047310;28;20125;-78
2023/05/23 06:18:48;;;;;;;41.30;19.80;;;;;;;14.84;74.44;95048.63;5034259;28;20020;-78
2023/05/23 06:21:14;;;;;;;47.22;23.42;;;;;;;15.22;74.55;95102.47;5063679;28;20047;-78
2023/05/23 06:23:40;;;;;;;44.13;23.52;;;;;;;15.25;75.36;95139.28;5066626;28;20032;-78
2023/05/23 06:26:09;;;;;;;45.90;24.42;;;;;;;15.57;74.92;95157.72;5050566;28;20526;-78
2023/05/23 06:28:41;;;;;;;46.00;23.83;;;;;;;15.77;74.99;95172.50;5078020;28;20033;-78
2023/05/23 06:31:08;;;;;;;41.95;22.23;;;;;;;15.69;74.40;95144.63;5032194;28;20120;-78
2023/05/23 06:33:34;;;;;;;42.30;21.45;;;;;;;15.78;73.40;95158.03;5047745;28;20503;-78
2023/05/23 06:35:59;;;;;;;43.38;23.00;;;;;;;16.00;73.70;95163.34;5041533;28;20044;-78
2023/05/23 06:38:26;;;;;;;41.55;23.75;;;;;;;16.19;73.29;95165.78;5042594;28;20029;-78
2023/05/23 06:40:52;;;;;;;41.38;23.25;;;;;;;16.03;72.29;95130.63;5046445;28;20033;-78
2023/05/23 06:43:17;;;;;;;48.97;25.60;;;;;;;16.11;73.41;95123.72;5036332;28;20030;-78
2023/05/23 06:45:46;;;;;;;51.38;26.63;;;;;;;16.45;73.08;95171.22;5032209;28;20123;-78
2023/05/23 06:48:11;;;;;;;48.42;23.48;;;;;;;16.09;72.70;95073.22;5049487;28;20099;-78
2023/05/23 06:50:37;;;;;;;46.40;23.40;;;;;;;16.65;72.30;95141.22;5050355;28;20462;-78
2023/05/23 06:53:02;;;;;;;41.63;24.80;;;;;;;16.58;71.23;95136.31;5048558;28;20517;-78
2023/05/23 06:55:29;;;;;;;49.55;24.92;;;;;;;16.63;69.51;95154.13;5030554;28;20025;-79
2023/05/23 06:57:54;;;;;;;48.17;24.35;;;;;;;16.63;69.81;95153.38;5030582;28;20060;-78
2023/05/23 07:00:20;;;;;;;43.95;24.50;;;;;;;16.40;69.34;95131.22;5037220;28;20029;-78
2023/05/23 07:02:49;;;;;;;48.72;25.40;;;;;;;15.94;69.57;95147.75;5044065;28;20455;-78
2023/05/23 07:05:16;;;;;;;45.55;24.83;;;;;;;16.04;69.70;95118.81;5043392;28;20033;-78
2023/05/23 07:07:41;;;;;;;59.53;27.58;;;;;;;16.36;70.63;95151.66;5055679;28;20047;-78
2023/05/23 07:10:08;;;;;;;57.97;27.27;;;;;;;15.56;71.66;95076.00;5042210;28;20472;-78
2023/05/23 07:12:33;;;;;;;58.08;27.50;;;;;;;16.03;72.66;95143.97;5047749;28;20041;-78
2023/05/23 07:14:58;;;;;;;56.72;29.77;;;;;;;15.70;72.46;95091.94;5054538;28;20419;-78
2023/05/23 07:17:24;;;;;;;59.90;30.98;;;;;;;15.94;72.38;95104.94;5054188;28;20048;-78
2023/05/23 07:19:51;;;;;;;58.58;30.20;;;;;;;16.13;72.40;95135.69;5041529;28;20514;-78
2023/05/23 07:22:17;;;;;;;58.83;30.02;;;;;;;16.26;72.03;95131.31;5052586;28;20352;-78
2023/05/23 07:24:43;;;;;;;64.38;31.48;;;;;;;16.29;72.07;95127.25;5051238;28;20029;-78
2023/05/23 07:27:08;;;;;;;65.30;30.20;;;;;;;16.14;72.84;95126.56;5054946;28;20111;-78
2023/05/23 07:29:34;;;;;;;58.70;29.42;;;;;;;15.92;72.60;95105.25;5053111;28;20045;-78
2023/05/23 07:31:59;;;;;;;58.78;30.33;;;;;;;15.73;72.94;95072.59;5037321;28;20094;-78
2023/05/23 07:34:27;;;;;;;56.28;30.80;;;;;;;15.85;72.76;95083.50;5052679;28;20021;-79
2023/05/23 07:36:52;;;;;;;54.70;28.13;;;;;;;15.93;72.79;95106.03;5048221;28;20021;-78
2023/05/23 07:39:21;;;;;;;56.65;29.77;;;;;;;15.77;73.20;95081.59;5052807;28;20043;-78
2023/05/23 07:41:48;;;;;;;57.60;29.02;;;;;;;15.78;72.95;95062.56;5043708;28;20037;-78
2023/05/23 07:44:13;;;;;;;51.10;28.13;;;;;;;16.02;73.50;95091.59;5043387;28;20037;-78
2023/05/23 07:46:38;;;;;;;47.58;28.95;;;;;;;16.20;73.14;95108.50;5042702;28;20235;-78
2023/05/23 07:49:04;;;;;;;46.08;27.48;;;;;;;16.29;73.27;95108.53;5047299;28;20510;-79
2023/05/23 07:51:29;;;;;;;55.83;27.90;;;;;;;16.33;72.83;95101.44;5038972;28;20030;-79
2023/05/23 07:53:55;;;;;;;47.65;28.52;;;;;;;16.01;74.79;95062.50;5033028;28;20427;-79
2023/05/23 07:56:20;;;;;;;45.08;28.45;;;;;;;16.08;73.81;95052.13;5047652;28;20086;-79
2023/05/23 07:58:46;;;;;;;50.63;29.55;;;;;;;16.18;73.13;95051.81;5037993;28;20021;-79
2023/05/23 08:01:12;;;;;;;50.22;33.97;;;;;;;16.19;73.65;95080.94;5051356;28;20131;-79
2023/05/23 08:03:37;;;;;;;55.60;31.80;;;;;;;16.41;73.26;95112.16;5034917;28;20106;-79
2023/05/23 08:06:03;;;;;;;50.17;30.52;;;;;;;16.38;73.15;95107.44;5034261;28;20064;-79
2023/05/23 08:08:28;;;;;;;47.13;28.38;;;;;;;16.41;74.04;95092.63;5036857;28;20036;-79
2023/05/23 08:10:54;;;;;;;40.85;26.75;;;;;;;16.48;73.92;95068.88;5046890;28;20063;-79
2023/05/23 08:13:19;;;;;;;42.75;24.38;;;;;;;16.70;73.65;95098.25;5035872;28;20162;-79
2023/05/23 08:15:45;;;;;;;34.85;22.75;;;;;;;16.73;74.16;95097.59;5052240;28;20514;-79
2023/05/23 08:18:11;;;;;;;36.70;22.65;;;;;;;16.76;73.81;95078.25;5051538;28;20025;-79
2023/05/23 08:20:37;;;;;;;35.17;22.35;;;;;;;16.83;73.18;95075.09;5051496;28;20538;-79
2023/05/23 08:23:03;;;;;;;38.20;21.90;;;;;;;17.02;72.88;95096.19;5051524;28;20039;-79
2023/05/23 08:25:32;;;;;;;36.25;22.77;;;;;;;17.08;72.90;95103.00;5045819;28;20041;-78
2023/05/23 08:27:58;;;;;;;31.30;20.45;;;;;;;16.96;72.74;95066.09;5039778;28;20053;-79
2023/05/23 08:30:24;;;;;;;32.00;18.38;;;;;;;16.95;72.19;95056.50;5051844;28;20520;-79
2023/05/23 08:32:54;;;;;;;32.17;18.63;;;;;;;17.24;73.25;95096.06;5051569;28;20067;-79
2023/05/23 08:35:20;;;;;;;29.05;16.65;;;;;;;16.80;72.70;95076.50;5035986;28;20441;-79
2023/05/23 08:37:46;;;;;;;30.50;16.83;;;;;;;17.05;71.91;95076.81;5031859;28;20021;-79
2023/05/23 08:40:20;;;;;;;33.72;16.95;;;;;;;16.80;72.37;95059.66;5033198;28;20044;-79
2023/05/23 08:42:47;;;;;;;29.70;17.55;;;;;;;16.98;72.48;95061.22;5048593;28;20042;-79
2023/05/23 08:45:13;;;;;;;36.25;18.45;;;;;;;17.18;72.66;95090.03;5036813;28;20055;-78
2023/05/23 08:47:41;;;;;;;32.95;18.65;;;;;;;17.26;72.50;95085.78;5047196;28;20105;-79
2023/05/23 08:50:10;;;;;;;26.63;15.98;;;;;;;17.36;71.78;95082.78;5026225;28;20474;-78
2023/05/23 08:52:44;;;;;;;30.08;16.50;;;;;;;17.48;71.79;95088.25;5050958;28;20411;-79
2023/05/23 08:55:10;;;;;;;34.08;15.55;;;;;;;17.39;72.57;95065.28;5041102;28;20044;-79
2023/05/23 08:57:38;;;;;;;24.80;15.65;;;;;;;17.29;71.24;95050.31;5032700;28;20116;-78
2023/05/23 09:00:13;;;;;;;24.80;15.60;;;;;;;17.45;72.41;95059.44;5044787;28;20086;-79
2023/05/23 09:02:42;;;;;;;26.83;15.43;;;;;;;17.45;72.41;95054.06;5053200;28;20094;-78
2023/05/23 09:05:08;;;;;;;25.70;14.75;;;;;;;17.55;70.04;95052.91;5052793;28;20415;-79
2023/05/23 09:07:35;;;;;;;31.42;15.38;;;;;;;17.68;69.94;95058.13;5035392;28;20119;-79
2023/05/23 09:10:02;;;;;;;22.60;13.30;;;;;;;17.85;70.49;95068.00;5049512;28;20036;-79
2023/05/23 09:12:28;;;;;;;19.13;13.32;;;;;;;17.91;69.53;95065.94;5043552;28;20396;-79
2023/05/23 09:14:54;;;;;;;20.60;12.73;;;;;;;17.78;69.12;95030.16;5048217;28;20045;-79
2023/05/23 09:17:20;;;;;;;23.60;11.57;;;;;;;18.08;64.86;95068.53;5037178;28;20083;-79
2023/05/23 09:19:48;;;;;;;20.10;12.23;;;;;;;18.06;66.78;95036.66;5049390;28;20035;-79
2023/05/23 09:22:13;;;;;;;18.75;11.30;;;;;;;18.10;66.82;95045.63;5044647;28;20029;-79
2023/05/23 09:24:40;;;;;;;23.92;11.82;;;;;;;18.36;66.04;95055.44;5041303;28;20041;-79
2023/05/23 09:27:06;;;;;;;14.98;8.82;;;;;;;18.23;64.33;95030.44;5051716;28;20132;-79
2023/05/23 09:29:31;;;;;;;16.20;8.88;;;;;;;18.32;65.75;95030.34;5032242;28;20523;-78
2023/05/23 09:32:18;;;;;;;14.75;6.70;;;;;;;18.37;60.09;95028.28;5045722;28;20041;-78
2023/05/23 09:35:02;;;;;;;15.98;8.15;;;;;;;18.50;61.62;95045.25;5037198;28;20463;-79
2023/05/23 09:37:36;;;;;;;13.90;7.28;;;;;;;18.74;64.16;95060.75;5032363;28;20144;-78
2023/05/23 09:40:10;;;;;;;11.27;5.25;;;;;;;18.86;58.90;95063.50;5050487;28;20029;-79
2023/05/23 09:42:41;;;;;;;10.93;5.60;;;;;;;19.21;58.04;95026.38;5045759;28;20491;-78
2023/05/23 09:45:07;;;;;;;12.38;6.20;;;;;;;20.33;57.32;95052.81;5032440;28;20064;-78
2023/05/23 09:47:33;;;;;;;8.38;5.75;;;;;;;21.52;57.46;95045.81;5043649;28;20507;-78
2023/05/23 09:49:58;;;;;;;7.40;5.45;;;;;;;22.04;54.81;94969.25;5050021;28;20484;-78
2023/05/23 09:52:24;;;;;;;14.60;5.22;;;;;;;23.66;49.06;95043.31;5075674;28;20079;-79
2023/05/23 09:54:49;;;;;;;11.75;4.93;;;;;;;23.86;46.39;94947.34;5035244;28;20178;-79
2023/05/23 09:57:16;;;;;;;12.63;5.00;;;;;;;24.67;43.19;95014.75;5052387;28;20032;-79
2023/05/23 09:59:53;;;;;;;17.67;4.72;;;;;;;24.99;44.06;94913.69;5051141;28;20033;-79
2023/05/23 10:02:52;;;;;;;13.18;5.03;;;;;;;26.65;39.51;95022.22;5052321;28;20040;-79
2023/05/23 10:05:34;;;;;;;14.25;4.60;;;;;;;27.05;38.59;94998.75;5052522;28;20033;-80
2023/05/23 10:08:03;;;;;;;6.70;3.80;;;;;;;27.62;35.74;95002.44;5049951;28;20029;-80
2023/05/23 10:10:34;;;;;;;15.00;4.30;;;;;;;28.03;32.63;95008.31;5039221;28;20034;-80
2023/05/23 10:13:04;;;;;;;8.05;3.80;;;;;;;28.61;31.04;95020.81;5034767;28;20059;-81
2023/05/23 10:15:35;;;;;;;12.05;3.55;;;;;;;28.88;32.38;94993.84;5029264;28;20052;-80
2023/05/23 10:18:15;;;;;;;17.17;4.55;;;;;;;29.36;33.01;95016.72;5025760;28;20488;-80
2023/05/23 10:20:46;;;;;;;6.55;3.33;;;;;;;29.46;31.86;94980.34;5029873;28;20494;-80
2023/05/23 10:23:12;;;;;;;7.80;4.00;;;;;;;29.54;31.55;95016.59;5080025;28;20043;-80
2023/05/23 10:25:40;;;;;;;9.40;4.00;;;;;;;29.51;31.26;95012.75;5034513;28;20033;-80
2023/05/23 10:28:05;;;;;;;10.85;4.55;;;;;;;29.73;30.05;94990.75;5043152;28;20132;-80
2023/05/23 10:30:31;;;;;;;11.07;3.92;;;;;;;29.99;29.72;95006.59;5029703;28;20118;-80
2023/05/23 10:32:58;;;;;;;5.43;3.88;;;;;;;30.05;30.33;94990.53;5042040;28;20031;-80
2023/05/23 10:35:45;;;;;;;7.18;3.50;;;;;;;30.23;29.31;95008.34;5035263;28;20029;-81
2023/05/23 10:38:40;;;;;;;5.95;4.10;;;;;;;29.83;29.32;94978.97;5044568;28;20105;-80
2023/05/23 10:41:10;;;;;;;12.30;4.32;;;;;;;29.70;28.92;94981.38;5034398;28;20029;-81
2023/05/23 10:43:39;;;;;;;;;;;;;;;29.92;27.99;95001.13;5051914;28;20033;-80
2023/05/23 10:46:07;;;;;;;6.07;3.78;;;;;;;29.89;27.53;95000.00;5053103;28;19947;-80
2023/05/23 10:48:43;;;;;;;4.22;3.08;;;;;;;29.64;29.52;94988.44;5071448;28;20036;-80
2023/05/23 10:51:13;;;;;;;13.10;5.10;;;;;;;29.95;28.43;94994.13;5054581;28;20098;-79
2023/05/23 10:53:41;;;;;;;7.97;3.97;;;;;;;29.88;29.26;94992.97;5048206;28;20035;-80
2023/05/23 10:56:20;;;;;;;13.45;5.80;;;;;;;29.75;26.65;94967.28;5039244;28;20522;-80
2023/05/23 10:58:46;;;;;;;11.45;4.35;;;;;;;30.07;26.34;94974.50;5047324;28;20032;-80
2023/05/23 11:01:18;;;;;;;9.32;3.63;;;;;;;29.75;26.81;94972.75;5047874;28;20111;-80
2023/05/23 11:03:51;;;;;;;6.43;3.55;;;;;;;29.66;29.94;94917.00;5052350;28;20039;-80
2023/05/23 11:06:42;;;;;;;4.40;3.17;;;;;;;30.54;27.91;94992.84;5085649;28;20059;-80
2023/05/23 11:09:11;;;;;;;10.02;3.95;;;;;;;30.51;29.17;94988.22;5052845;28;20037;-81
2023/05/23 11:12:01;;;;;;;9.52;3.85;;;;;;;30.55;26.18;94979.94;5053360;28;20048;-80
2023/05/23 11:14:34;;;;;;;5.78;3.60;;;;;;;30.42;25.70;94970.69;5051785;28;20031;-80
2023/05/23 11:17:16;;;;;;;11.27;3.30;;;;;;;30.54;24.88;94968.22;5046046;28;20059;-80
2023/05/23 11:20:05;;;;;;;16.42;3.55;;;;;;;30.65;27.18;94976.34;5034069;28;20044;-79
2023/05/23 11:22:31;;;;;;;9.43;3.42;;;;;;;30.72;25.38;94957.09;5049220;28;20132;-80